createdAt,value
2023-02-28T00:00:37.934Z,29.70
2023-02-28T00:03:19.151Z,29.90
2023-02-28T00:05:48.020Z,29.90
2023-02-28T00:08:17.232Z,29.70
2023-02-28T00:10:47.381Z,29.70
2023-02-28T00:13:16.602Z,29.70
2023-02-28T00:15:46.392Z,29.70
2023-02-28T00:18:15.615Z,29.70
2023-02-28T00:20:44.407Z,29.70
2023-02-28T00:23:13.480Z,29.70
2023-02-28T00:25:42.313Z,30.00
2023-02-28T00:28:12.773Z,30.00
2023-02-28T00:30:41.634Z,29.70
2023-02-28T00:33:10.935Z,29.70
2023-02-28T00:35:39.805Z,30.00
2023-02-28T00:38:12.010Z,29.90
2023-02-28T00:40:40.806Z,30.00
2023-02-28T00:43:09.982Z,30.10
2023-02-28T00:45:40.954Z,30.10
2023-02-28T00:48:10.054Z,30.30
2023-02-28T00:50:41.503Z,30.00
2023-02-28T00:53:10.585Z,29.90
2023-02-28T00:55:39.351Z,29.90
2023-02-28T00:58:08.435Z,29.90
2023-02-28T01:00:37.412Z,29.90
2023-02-28T01:03:08.024Z,30.20
2023-02-28T01:05:36.912Z,29.90
2023-02-28T01:08:07.362Z,29.60
2023-02-28T01:10:37.547Z,29.60
2023-02-28T01:13:06.734Z,29.70
2023-02-28T01:15:35.786Z,29.90
2023-02-28T01:18:05.079Z,29.80
2023-02-28T01:20:35.323Z,30.00
2023-02-28T01:23:04.401Z,29.90
2023-02-28T01:25:33.242Z,30.00
2023-02-28T01:28:02.328Z,29.90
2023-02-28T01:30:31.129Z,30.20
2023-02-28T01:33:00.270Z,30.00
2023-02-28T01:35:29.117Z,29.90
2023-02-28T01:38:09.518Z,30.00
2023-02-28T01:40:44.654Z,30.20
2023-02-28T01:43:24.681Z,30.10
2023-02-28T01:45:54.703Z,30.00
2023-02-28T01:48:29.575Z,29.70
2023-02-28T01:51:07.466Z,29.70
2023-02-28T01:53:47.735Z,29.90
2023-02-28T01:56:26.201Z,29.90
2023-02-28T01:58:57.194Z,30.50
2023-02-28T02:01:29.824Z,30.20
2023-02-28T02:04:04.533Z,30.00
2023-02-28T02:06:39.696Z,29.70
2023-02-28T02:09:15.400Z,30.00
2023-02-28T02:11:47.092Z,30.10
2023-02-28T02:14:49.762Z,30.20
2023-02-28T02:17:30.993Z,29.90
2023-02-28T02:20:38.241Z,30.00
2023-02-28T02:23:59.150Z,30.00
2023-02-28T02:27:05.959Z,30.00
2023-02-28T02:30:10.735Z,30.10
2023-02-28T02:33:38.374Z,30.00
2023-02-28T02:36:20.426Z,30.20
2023-02-28T02:38:59.834Z,30.00
2023-02-28T02:41:37.509Z,29.90
2023-02-28T02:44:20.159Z,29.90
2023-02-28T02:46:52.802Z,29.90
2023-02-28T02:49:28.556Z,29.90
2023-02-28T02:52:06.152Z,29.70
2023-02-28T02:54:39.384Z,29.80
2023-02-28T02:57:15.768Z,29.70
2023-02-28T02:59:45.815Z,29.80
2023-02-28T03:02:20.049Z,29.90
2023-02-28T03:04:54.725Z,30.20
2023-02-28T03:07:25.634Z,30.10
2023-02-28T03:09:57.029Z,30.20
2023-02-28T03:12:37.267Z,30.20
2023-02-28T03:15:20.335Z,30.20
2023-02-28T03:18:06.619Z,30.00
2023-02-28T03:20:45.227Z,29.90
2023-02-28T03:23:23.561Z,30.00
2023-02-28T03:26:04.116Z,30.00
2023-02-28T03:28:43.096Z,30.00
2023-02-28T03:31:21.475Z,30.00
2023-02-28T03:34:00.394Z,30.10
2023-02-28T03:36:37.532Z,30.30
2023-02-28T03:39:13.717Z,30.30
2023-02-28T03:41:50.776Z,30.30
2023-02-28T03:44:29.349Z,31.10
2023-02-28T03:47:05.636Z,31.00
2023-02-28T03:49:44.360Z,30.70
2023-02-28T03:52:13.510Z,30.70
2023-02-28T03:54:52.839Z,30.50
2023-02-28T03:57:35.044Z,30.40
2023-02-28T04:00:10.865Z,30.60
2023-02-28T04:02:43.083Z,30.00
2023-02-28T04:05:11.938Z,30.00
2023-02-28T04:07:41.112Z,30.10
2023-02-28T04:10:13.867Z,30.10
2023-02-28T04:12:43.105Z,30.20
2023-02-28T04:15:12.409Z,30.30
2023-02-28T04:17:41.451Z,30.30
2023-02-28T04:20:12.686Z,30.40
2023-02-28T04:22:41.782Z,30.30
2023-02-28T04:25:12.127Z,30.20
2023-02-28T04:27:41.164Z,30.60
2023-02-28T04:30:11.987Z,30.60
2023-02-28T04:32:41.249Z,30.60
2023-02-28T04:35:12.467Z,30.40
2023-02-28T04:37:41.627Z,30.00
2023-02-28T04:40:13.410Z,30.00
2023-02-28T04:42:42.425Z,30.20
2023-02-28T04:45:12.317Z,30.20
2023-02-28T04:47:41.389Z,30.20
2023-02-28T04:50:12.005Z,30.10
2023-02-28T04:52:41.116Z,30.00
2023-02-28T04:55:12.386Z,30.00
2023-02-28T04:57:43.645Z,30.00
2023-02-28T05:00:17.769Z,30.00
2023-02-28T05:02:46.856Z,30.00
2023-02-28T05:05:19.180Z,30.00
2023-02-28T05:07:48.264Z,30.00
2023-02-28T05:10:19.085Z,30.10
2023-02-28T05:12:49.045Z,30.20
2023-02-28T05:15:19.147Z,30.20
2023-02-28T05:17:48.291Z,30.10
2023-02-28T05:20:18.148Z,30.00
2023-02-28T05:22:47.494Z,30.00
2023-02-28T05:25:22.606Z,30.00
2023-02-28T05:27:51.859Z,30.30
2023-02-28T05:30:20.929Z,30.60
2023-02-28T05:32:53.813Z,31.00
2023-02-28T05:35:22.748Z,30.80
2023-02-28T05:37:51.873Z,30.90
2023-02-28T05:40:22.308Z,30.80
2023-02-28T05:42:53.216Z,31.00
2023-02-28T05:45:21.950Z,31.60
2023-02-28T05:47:51.136Z,31.20
2023-02-28T05:50:20.119Z,30.70
2023-02-28T05:52:52.221Z,30.70
2023-02-28T05:55:22.423Z,30.60
2023-02-28T05:57:51.431Z,30.90
2023-02-28T06:00:21.312Z,31.20
2023-02-28T06:02:50.395Z,31.00
2023-02-28T06:05:20.371Z,31.00
2023-02-28T06:07:49.464Z,31.40
2023-02-28T06:10:18.644Z,31.20
2023-02-28T06:12:49.132Z,31.20
2023-02-28T06:15:19.118Z,31.20
2023-02-28T06:17:48.157Z,31.30
2023-02-28T06:20:17.249Z,31.30
2023-02-28T06:22:46.333Z,31.30
2023-02-28T06:25:15.141Z,31.40
2023-02-28T06:27:44.636Z,31.50
2023-02-28T06:30:15.737Z,31.40
2023-02-28T06:32:44.823Z,31.50
2023-02-28T06:35:14.784Z,31.50
2023-02-28T06:37:44.971Z,31.50
2023-02-28T06:40:15.070Z,31.60
2023-02-28T06:42:44.376Z,31.40
2023-02-28T06:45:15.013Z,31.30
2023-02-28T06:47:44.667Z,31.30
2023-02-28T06:50:15.172Z,31.30
2023-02-28T06:52:44.260Z,31.40
2023-02-28T06:55:13.359Z,31.30
2023-02-28T06:57:42.445Z,31.10
2023-02-28T07:00:15.296Z,30.90
2023-02-28T07:02:44.383Z,30.60
2023-02-28T07:05:13.315Z,30.60
2023-02-28T07:07:45.341Z,30.70
2023-02-28T07:10:20.199Z,30.60
2023-02-28T07:12:49.492Z,30.50
2023-02-28T07:15:19.696Z,29.50
2023-02-28T07:17:49.024Z,29.70
2023-02-28T07:20:18.314Z,29.30
2023-02-28T07:22:47.061Z,29.40
2023-02-28T07:25:16.525Z,29.10
2023-02-28T07:27:45.344Z,29.00
2023-02-28T07:30:15.469Z,29.30
2023-02-28T07:32:45.696Z,29.20
2023-02-28T07:35:16.225Z,29.20
2023-02-28T07:37:45.155Z,28.80
2023-02-28T07:40:15.730Z,28.20
2023-02-28T07:42:44.841Z,28.20
2023-02-28T07:45:15.617Z,28.30
2023-02-28T07:47:46.496Z,28.50
2023-02-28T07:50:18.298Z,28.10
2023-02-28T07:52:47.139Z,27.70
2023-02-28T07:55:17.672Z,27.10
2023-02-28T07:57:46.895Z,27.40
2023-02-28T08:00:16.781Z,27.20
2023-02-28T08:02:46.957Z,27.10
2023-02-28T08:05:16.323Z,27.00
2023-02-28T08:07:45.335Z,26.80
2023-02-28T08:10:14.456Z,27.00
2023-02-28T08:12:43.282Z,26.70
2023-02-28T08:15:12.910Z,26.90
2023-02-28T08:17:41.871Z,27.10
2023-02-28T08:20:14.336Z,27.20
2023-02-28T08:22:45.855Z,26.40
2023-02-28T08:25:15.137Z,26.50
2023-02-28T08:27:44.203Z,27.10
2023-02-28T08:30:15.022Z,27.10
2023-02-28T08:32:44.043Z,26.40
2023-02-28T08:35:14.560Z,26.80
2023-02-28T08:37:43.578Z,27.20
2023-02-28T08:40:19.000Z,27.00
2023-02-28T08:42:48.139Z,26.40
2023-02-28T08:45:17.549Z,26.30
2023-02-28T08:47:46.393Z,26.00
2023-02-28T08:50:17.619Z,26.40
2023-02-28T08:52:46.507Z,26.00
2023-02-28T08:55:16.318Z,26.00
2023-02-28T08:57:45.586Z,25.90
2023-02-28T09:00:15.930Z,25.80
2023-02-28T09:02:44.859Z,26.20
2023-02-28T09:05:13.968Z,25.90
2023-02-28T09:07:44.216Z,26.40
2023-02-28T09:10:13.771Z,26.50
2023-02-28T09:12:42.652Z,26.30
2023-02-28T09:15:13.014Z,25.80
2023-02-28T09:17:42.174Z,26.10
2023-02-28T09:20:14.256Z,25.70
2023-02-28T09:22:44.463Z,25.50
2023-02-28T09:25:13.564Z,26.00
2023-02-28T09:27:43.122Z,25.30
2023-02-28T09:30:14.332Z,25.30
2023-02-28T09:32:43.238Z,25.40
2023-02-28T09:35:14.440Z,24.70
2023-02-28T09:37:44.599Z,24.70
2023-02-28T09:40:18.496Z,24.90
2023-02-28T09:42:50.643Z,24.80
2023-02-28T09:45:28.963Z,24.60
2023-02-28T09:48:05.335Z,25.00
2023-02-28T09:50:41.023Z,24.80
2023-02-28T09:53:23.305Z,24.70
2023-02-28T09:55:57.996Z,24.60
2023-02-28T09:58:35.902Z,24.40
2023-02-28T10:01:14.483Z,24.60
2023-02-28T10:03:53.534Z,25.00
2023-02-28T10:06:28.296Z,24.50
2023-02-28T10:09:06.289Z,24.60
2023-02-28T10:11:40.034Z,24.50
2023-02-28T10:14:17.944Z,24.50
2023-02-28T10:16:53.122Z,24.30
2023-02-28T10:19:33.690Z,24.20
2023-02-28T10:22:12.821Z,24.30
2023-02-28T10:24:46.612Z,24.80
2023-02-28T10:27:19.649Z,24.10
2023-02-28T10:29:52.282Z,24.90
2023-02-28T10:32:25.505Z,24.20
2023-02-28T10:34:59.751Z,24.30
2023-02-28T10:37:29.022Z,24.30
2023-02-28T10:39:59.294Z,24.30
2023-02-28T10:42:30.909Z,24.20
2023-02-28T10:45:15.156Z,24.30
2023-02-28T10:47:56.482Z,24.40
2023-02-28T10:50:45.296Z,24.30
2023-02-28T10:53:36.064Z,24.00
2023-02-28T10:56:19.827Z,24.00
2023-02-28T10:58:56.994Z,24.30
2023-02-28T11:01:37.934Z,24.00
2023-02-28T11:04:22.602Z,23.80
2023-02-28T11:07:00.417Z,23.50
2023-02-28T11:09:35.970Z,23.60
2023-02-28T11:12:09.941Z,23.70
2023-02-28T11:14:51.250Z,23.50
2023-02-28T11:17:25.344Z,23.40
2023-02-28T11:19:58.398Z,23.50
2023-02-28T11:22:33.661Z,23.50
2023-02-28T11:25:10.923Z,23.30
2023-02-28T11:27:51.080Z,23.20
2023-02-28T11:30:36.608Z,22.90
2023-02-28T11:33:28.342Z,23.20
2023-02-28T11:36:03.688Z,23.60
2023-02-28T11:38:37.690Z,23.10
2023-02-28T11:41:47.899Z,23.10
2023-02-28T11:44:40.818Z,22.90
2023-02-28T11:47:19.757Z,22.60
2023-02-28T11:50:06.239Z,22.50
2023-02-28T11:52:50.861Z,22.50
2023-02-28T11:55:27.936Z,22.10
2023-02-28T11:58:29.877Z,22.20
2023-02-28T12:01:40.020Z,22.00
2023-02-28T12:04:29.351Z,22.20
2023-02-28T12:07:05.908Z,22.20
2023-02-28T12:10:00.320Z,22.00
2023-02-28T12:12:51.849Z,21.90
2023-02-28T12:15:53.832Z,22.30
2023-02-28T12:18:54.786Z,22.00
2023-02-28T12:21:45.432Z,22.10
2023-02-28T12:24:55.061Z,22.70
2023-02-28T12:27:30.538Z,22.10
2023-02-28T12:30:04.898Z,22.10
2023-02-28T12:32:41.223Z,22.40
2023-02-28T12:35:19.764Z,22.30
2023-02-28T12:37:57.912Z,22.50
2023-02-28T12:40:40.231Z,22.50
2023-02-28T12:43:13.833Z,22.80
2023-02-28T12:45:50.104Z,23.00
2023-02-28T12:48:29.403Z,22.90
2023-02-28T12:51:03.249Z,23.40
2023-02-28T12:53:55.297Z,23.70
2023-02-28T12:56:40.940Z,23.90
2023-02-28T12:59:24.559Z,24.00
2023-02-28T13:02:43.373Z,24.30
2023-02-28T13:06:12.775Z,24.50
2023-02-28T13:09:13.481Z,24.70
2023-02-28T13:11:45.887Z,24.70
2023-02-28T13:14:31.430Z,25.10
2023-02-28T13:17:14.168Z,25.20
2023-02-28T13:19:48.729Z,25.10
2023-02-28T13:22:42.200Z,25.10
2023-02-28T13:25:55.549Z,25.20
2023-02-28T13:29:29.491Z,25.20
2023-02-28T13:32:44.016Z,25.50
2023-02-28T13:35:39.915Z,25.40
2023-02-28T13:38:37.095Z,25.90
2023-02-28T13:41:57.213Z,25.80
2023-02-28T13:44:27.837Z,26.00
2023-02-28T13:47:29.944Z,25.80
2023-02-28T13:50:22.935Z,25.80
2023-02-28T13:53:18.254Z,25.70
2023-02-28T13:56:00.872Z,25.90
2023-02-28T13:58:54.920Z,25.70
2023-02-28T14:02:02.722Z,25.60
2023-02-28T14:05:03.655Z,26.00
2023-02-28T14:07:40.728Z,25.80
2023-02-28T14:10:25.514Z,26.10
2023-02-28T14:13:13.397Z,25.90
2023-02-28T14:15:49.403Z,25.90
2023-02-28T14:18:38.341Z,26.10
2023-02-28T14:21:22.171Z,25.80
2023-02-28T14:24:28.638Z,25.90
2023-02-28T14:27:45.019Z,25.90
2023-02-28T14:30:54.112Z,26.00
2023-02-28T14:33:34.202Z,26.10
2023-02-28T14:36:23.555Z,26.10
2023-02-28T14:38:58.555Z,26.40
2023-02-28T14:41:36.359Z,26.20
2023-02-28T14:44:17.902Z,26.00
2023-02-28T14:46:54.306Z,25.90
2023-02-28T14:49:29.654Z,26.00
2023-02-28T14:52:11.868Z,26.10
2023-02-28T14:54:42.296Z,26.10
2023-02-28T14:57:25.484Z,26.20
2023-02-28T15:00:04.879Z,26.30
2023-02-28T15:02:38.097Z,26.30
2023-02-28T15:05:26.547Z,26.40
2023-02-28T15:08:12.824Z,26.20
2023-02-28T15:10:45.829Z,26.20
2023-02-28T15:13:17.195Z,26.30
2023-02-28T15:16:03.977Z,26.20
2023-02-28T15:18:48.567Z,26.10
2023-02-28T15:21:23.057Z,26.10
2023-02-28T15:23:57.196Z,26.20
2023-02-28T15:26:32.444Z,26.20
2023-02-28T15:29:05.740Z,26.10
2023-02-28T15:31:56.871Z,26.10
2023-02-28T15:34:45.100Z,26.40
2023-02-28T15:37:43.250Z,26.40
2023-02-28T15:40:24.573Z,26.50
2023-02-28T15:43:08.369Z,26.60
2023-02-28T15:45:46.260Z,26.50
2023-02-28T15:48:22.859Z,27.50
2023-02-28T15:50:56.921Z,27.30
2023-02-28T15:53:30.828Z,27.20
2023-02-28T15:56:07.538Z,27.20
2023-02-28T15:58:38.840Z,27.10
2023-02-28T16:01:20.739Z,27.30
2023-02-28T16:03:53.502Z,27.40
2023-02-28T16:06:36.729Z,27.80
2023-02-28T16:09:09.441Z,27.60
2023-02-28T16:11:45.284Z,27.60
2023-02-28T16:14:24.050Z,28.00
2023-02-28T16:16:56.936Z,28.00
2023-02-28T16:19:26.412Z,28.20
2023-02-28T16:21:56.916Z,28.20
2023-02-28T16:24:26.555Z,28.40
2023-02-28T16:26:59.107Z,28.50
2023-02-28T16:29:33.040Z,28.40
2023-02-28T16:32:02.674Z,28.50
2023-02-28T16:34:31.928Z,28.40
2023-02-28T16:37:02.132Z,28.40
2023-02-28T16:39:31.329Z,28.60
2023-02-28T16:42:00.287Z,28.70
2023-02-28T16:44:33.988Z,28.70
2023-02-28T16:47:05.181Z,29.10
2023-02-28T16:49:34.490Z,29.40
2023-02-28T16:52:05.634Z,28.90
2023-02-28T16:54:34.823Z,29.20
2023-02-28T16:57:03.938Z,29.20
2023-02-28T16:59:34.351Z,29.30
2023-02-28T17:02:03.383Z,29.10
2023-02-28T17:04:32.723Z,29.30
2023-02-28T17:07:01.535Z,29.30
2023-02-28T17:09:42.018Z,29.40
2023-02-28T17:12:13.121Z,29.40
2023-02-28T17:14:42.259Z,29.40
2023-02-28T17:17:19.084Z,29.40
2023-02-28T17:19:48.395Z,29.50
2023-02-28T17:22:17.154Z,29.60
2023-02-28T17:24:47.622Z,29.70
2023-02-28T17:27:16.698Z,29.60
2023-02-28T17:29:45.786Z,29.90
2023-02-28T17:32:18.754Z,29.80
2023-02-28T17:34:48.035Z,29.80
2023-02-28T17:37:16.961Z,30.00
2023-02-28T17:39:47.786Z,29.80
2023-02-28T17:42:16.805Z,30.00
2023-02-28T17:44:45.884Z,30.00
2023-02-28T17:47:14.989Z,30.00
2023-02-28T17:49:44.123Z,30.00
2023-02-28T17:52:12.947Z,30.20
2023-02-28T17:54:42.067Z,30.20
2023-02-28T17:57:17.404Z,30.30
2023-02-28T17:59:46.547Z,30.40
2023-02-28T18:02:16.966Z,30.30
2023-02-28T18:04:46.097Z,30.20
2023-02-28T18:07:14.902Z,30.40
2023-02-28T18:09:44.024Z,30.30
2023-02-28T18:12:14.243Z,30.50
2023-02-28T18:14:43.510Z,30.40
2023-02-28T18:17:14.260Z,30.60
2023-02-28T18:19:43.534Z,30.40
2023-02-28T18:22:12.367Z,30.40
2023-02-28T18:24:42.063Z,30.20
2023-02-28T18:27:12.498Z,30.20
2023-02-28T18:29:43.032Z,30.30
2023-02-28T18:32:12.064Z,30.30
2023-02-28T18:34:41.208Z,30.50
2023-02-28T18:37:11.849Z,30.50
2023-02-28T18:39:41.258Z,30.60
2023-02-28T18:42:10.188Z,30.50
2023-02-28T18:44:39.580Z,30.50
2023-02-28T18:47:09.994Z,30.50
2023-02-28T18:49:39.216Z,30.50
2023-02-28T18:52:08.049Z,30.50
2023-02-28T18:54:37.398Z,30.60
2023-02-28T18:57:06.726Z,30.40
2023-02-28T18:59:36.610Z,30.50
2023-02-28T19:02:05.497Z,30.60
2023-02-28T19:04:35.961Z,30.50
2023-02-28T19:07:04.892Z,30.60
2023-02-28T19:09:33.995Z,30.80
2023-02-28T19:12:02.845Z,30.90
2023-02-28T19:14:32.251Z,31.00
2023-02-28T19:17:01.166Z,30.70
2023-02-28T19:19:30.819Z,30.70
2023-02-28T19:22:01.086Z,30.80
2023-02-28T19:24:30.546Z,30.80
2023-02-28T19:26:59.381Z,31.00
2023-02-28T19:29:28.573Z,31.00
2023-02-28T19:31:57.553Z,30.90
2023-02-28T19:34:26.792Z,30.90
2023-02-28T19:36:55.590Z,30.90
2023-02-28T19:39:26.110Z,31.20
2023-02-28T19:41:55.255Z,30.80
2023-02-28T19:44:24.353Z,31.00
2023-02-28T19:46:54.526Z,31.10
2023-02-28T19:49:25.985Z,31.00
2023-02-28T19:51:54.948Z,30.90
2023-02-28T19:54:25.628Z,30.90
2023-02-28T19:56:57.599Z,31.00
2023-02-28T19:59:38.353Z,31.30
2023-02-28T20:02:14.879Z,32.00
2023-02-28T20:04:47.558Z,31.10
2023-02-28T20:07:17.021Z,31.30
2023-02-28T20:09:47.988Z,31.30
2023-02-28T20:12:25.092Z,31.20
2023-02-28T20:14:57.043Z,31.30
2023-02-28T20:17:26.477Z,31.30
2023-02-28T20:19:55.580Z,31.40
2023-02-28T20:22:24.457Z,31.40
2023-02-28T20:24:55.048Z,31.30
2023-02-28T20:27:23.973Z,31.50
2023-02-28T20:29:53.305Z,31.50
2023-02-28T20:32:22.227Z,31.40
2023-02-28T20:34:51.293Z,31.60
2023-02-28T20:37:20.296Z,31.60
2023-02-28T20:39:49.725Z,31.70
2023-02-28T20:42:20.294Z,31.40
2023-02-28T20:44:49.409Z,31.50
2023-02-28T20:47:18.290Z,32.20
2023-02-28T20:49:47.462Z,31.50
2023-02-28T20:52:16.367Z,31.50
2023-02-28T20:54:45.588Z,31.60
2023-02-28T20:57:14.498Z,31.50
2023-02-28T20:59:44.986Z,31.60
2023-02-28T21:02:17.960Z,31.60
2023-02-28T21:04:47.197Z,31.70
2023-02-28T21:07:16.448Z,31.80
2023-02-28T21:09:45.616Z,31.60
2023-02-28T21:12:14.470Z,31.70
2023-02-28T21:14:45.014Z,31.70
2023-02-28T21:17:13.803Z,31.60
2023-02-28T21:19:42.998Z,31.40
2023-02-28T21:22:12.054Z,31.90
2023-02-28T21:24:41.393Z,31.70
2023-02-28T21:27:10.216Z,31.50
2023-02-28T21:29:39.626Z,31.70
2023-02-28T21:32:09.958Z,31.70
2023-02-28T21:34:39.432Z,31.70
2023-02-28T21:37:08.647Z,31.80
2023-02-28T21:39:37.858Z,31.80
2023-02-28T21:42:06.796Z,31.80
2023-02-28T21:44:35.978Z,32.00
2023-02-28T21:47:05.437Z,31.90
2023-02-28T21:49:36.125Z,31.90
2023-02-28T21:52:05.018Z,31.90
2023-02-28T21:54:34.136Z,32.00
2023-02-28T21:57:03.084Z,31.90
2023-02-28T21:59:32.432Z,31.90
2023-02-28T22:02:01.342Z,31.80
2023-02-28T22:04:30.436Z,31.90
2023-02-28T22:07:00.624Z,32.00
2023-02-28T22:09:30.584Z,31.90
2023-02-28T22:11:59.939Z,32.00
2023-02-28T22:14:29.118Z,32.00
2023-02-28T22:16:58.446Z,32.00
2023-02-28T22:19:29.058Z,32.00
2023-02-28T22:22:00.045Z,32.00
2023-02-28T22:24:28.917Z,32.10
2023-02-28T22:26:58.544Z,31.90
2023-02-28T22:29:27.370Z,31.90
2023-02-28T22:31:56.488Z,32.10
2023-02-28T22:34:25.334Z,32.10
2023-02-28T22:36:54.453Z,32.10
2023-02-28T22:39:25.717Z,32.20
2023-02-28T22:41:57.018Z,32.30
2023-02-28T22:44:25.841Z,32.00
2023-02-28T22:46:55.920Z,32.10
2023-02-28T22:49:25.136Z,32.10
2023-02-28T22:51:54.334Z,32.20
2023-02-28T22:54:24.494Z,32.20
2023-02-28T22:56:53.550Z,32.20
2023-02-28T22:59:22.931Z,32.30
2023-02-28T23:01:52.031Z,32.30
2023-02-28T23:04:20.932Z,32.30
2023-02-28T23:06:50.117Z,32.40
2023-02-28T23:09:21.562Z,32.30
2023-02-28T23:11:53.997Z,32.10
2023-02-28T23:14:23.283Z,32.10
2023-02-28T23:16:55.866Z,32.10
2023-02-28T23:19:27.845Z,32.20
2023-02-28T23:21:57.763Z,32.10
2023-02-28T23:24:28.938Z,32.40
2023-02-28T23:27:04.405Z,32.30
2023-02-28T23:29:34.238Z,32.30
2023-02-28T23:32:03.995Z,32.40
2023-02-28T23:34:33.400Z,32.50
2023-02-28T23:37:03.822Z,32.50
2023-02-28T23:39:33.001Z,32.50
2023-02-28T23:42:03.526Z,32.60
2023-02-28T23:44:32.475Z,32.50
2023-02-28T23:47:01.588Z,32.60
2023-02-28T23:49:30.387Z,32.20
2023-02-28T23:52:00.036Z,32.40
2023-02-28T23:54:29.747Z,32.50
2023-02-28T23:56:59.036Z,32.60
2023-02-28T23:59:29.749Z,32.40
